createdAt,value
2017-05-01T00:01:23.091Z,47.50
2017-05-01T00:03:50.219Z,47.80
2017-05-01T00:06:17.956Z,47.80
2017-05-01T00:08:44.966Z,48.10
2017-05-01T00:11:12.791Z,48.50
2017-05-01T00:13:40.497Z,48.30
2017-05-01T00:16:07.476Z,48.80
2017-05-01T00:18:34.475Z,49.10
2017-05-01T00:21:01.450Z,49.30
2017-05-01T00:23:28.437Z,49.40
2017-05-01T00:25:56.181Z,49.50
2017-05-01T00:28:23.177Z,49.60
2017-05-01T00:30:50.134Z,49.90
2017-05-01T00:33:17.123Z,49.90
2017-05-01T00:35:44.111Z,49.90
2017-05-01T00:38:11.096Z,49.80
2017-05-01T00:40:38.115Z,50.20
2017-05-01T00:43:05.089Z,50.10
2017-05-01T00:45:32.052Z,50.50
2017-05-01T00:47:59.016Z,50.50
2017-05-01T00:50:26.899Z,50.50
2017-05-01T00:52:53.918Z,50.70
2017-05-01T00:55:20.903Z,51.00
2017-05-01T00:57:47.856Z,51.40
2017-05-01T01:00:14.922Z,51.60
2017-05-01T01:02:41.915Z,52.00
2017-05-01T01:05:09.636Z,51.80
2017-05-01T01:07:36.589Z,51.80
2017-05-01T01:10:22.344Z,52.00
2017-05-01T01:12:49.355Z,52.50
2017-05-01T01:15:17.081Z,52.90
2017-05-01T01:17:44.043Z,52.80
2017-05-01T01:20:11.108Z,53.00
2017-05-01T01:22:38.152Z,53.20
2017-05-01T01:25:05.159Z,53.20
2017-05-01T01:27:32.204Z,53.30
2017-05-01T01:29:59.224Z,53.30
2017-05-01T01:32:26.310Z,53.30
2017-05-01T01:34:53.333Z,53.90
2017-05-01T01:37:20.505Z,53.80
2017-05-01T01:39:47.544Z,53.80
2017-05-01T01:42:14.574Z,53.80
2017-05-01T01:44:41.655Z,54.00
2017-05-01T01:47:08.711Z,53.90
2017-05-01T01:49:35.731Z,54.10
2017-05-01T01:52:02.755Z,53.90
2017-05-01T01:54:29.795Z,54.00
2017-05-01T01:56:57.620Z,54.10
2017-05-01T01:59:24.690Z,54.70
2017-05-01T02:01:51.704Z,54.60
2017-05-01T02:04:18.712Z,54.90
2017-05-01T02:06:45.735Z,54.90
2017-05-01T02:09:12.745Z,54.70
2017-05-01T02:11:39.819Z,55.00
2017-05-01T02:14:06.942Z,55.30
2017-05-01T02:16:33.946Z,55.10
2017-05-01T02:19:00.969Z,56.00
2017-05-01T02:21:28.013Z,55.30
2017-05-01T02:23:55.107Z,55.70
2017-05-01T02:26:22.162Z,55.90
2017-05-01T02:28:49.188Z,56.00
2017-05-01T02:31:16.251Z,56.20
2017-05-01T02:33:43.292Z,55.80
2017-05-01T02:36:10.356Z,56.00
2017-05-01T02:38:37.424Z,55.50
2017-05-01T02:41:04.424Z,55.40
2017-05-01T02:43:31.492Z,55.50
2017-05-01T02:45:58.504Z,55.80
2017-05-01T02:48:26.256Z,56.00
2017-05-01T02:50:53.249Z,56.10
2017-05-01T02:53:20.275Z,55.90
2017-05-01T02:55:48.048Z,56.30
2017-05-01T02:58:15.085Z,56.50
2017-05-01T03:00:42.875Z,56.20
2017-05-01T03:03:09.953Z,56.20
2017-05-01T03:05:37.033Z,56.10
2017-05-01T03:08:04.039Z,56.20
2017-05-01T03:10:31.100Z,55.70
2017-05-01T03:12:58.135Z,55.90
2017-05-01T03:15:25.263Z,56.10
2017-05-01T03:17:52.280Z,56.00
2017-05-01T03:20:20.023Z,55.80
2017-05-01T03:22:47.024Z,56.20
2017-05-01T03:25:14.097Z,56.20
2017-05-01T03:27:41.255Z,55.60
2017-05-01T03:30:08.323Z,55.50
2017-05-01T03:32:35.300Z,55.00
2017-05-01T03:35:02.352Z,55.40
2017-05-01T03:37:29.323Z,55.30
2017-05-01T03:39:56.344Z,54.80
2017-05-01T03:42:23.283Z,55.00
2017-05-01T03:44:50.451Z,55.00
2017-05-01T03:47:17.523Z,54.60
2017-05-01T03:49:44.481Z,54.10
2017-05-01T03:52:11.458Z,54.10
2017-05-01T03:54:39.148Z,54.40
2017-05-01T03:57:06.111Z,54.40
2017-05-01T03:59:33.093Z,54.60
2017-05-01T04:02:00.028Z,54.20
2017-05-01T04:04:26.993Z,54.60
2017-05-01T04:06:53.963Z,54.90
2017-05-01T04:09:20.961Z,54.90
2017-05-01T04:11:47.985Z,55.00
2017-05-01T04:14:14.928Z,55.30
2017-05-01T04:16:41.899Z,55.40
2017-05-01T04:19:08.915Z,55.50
2017-05-01T04:21:35.852Z,55.60
2017-05-01T04:24:02.856Z,55.10
2017-05-01T04:26:29.814Z,54.80
2017-05-01T04:28:57.548Z,55.90
2017-05-01T04:31:24.574Z,54.60
2017-05-01T04:33:51.549Z,54.60
2017-05-01T04:36:18.899Z,54.60
2017-05-01T04:38:45.920Z,53.80
2017-05-01T04:41:12.875Z,54.90
2017-05-01T04:43:39.881Z,54.90
2017-05-01T04:46:07.591Z,55.20
2017-05-01T04:48:34.572Z,55.70
2017-05-01T04:51:01.573Z,55.50
2017-05-01T04:53:28.550Z,56.30
2017-05-01T04:55:55.540Z,56.40
2017-05-01T04:58:22.573Z,56.10
2017-05-01T05:00:50.306Z,55.90
2017-05-01T05:03:17.272Z,56.50
2017-05-01T05:05:44.971Z,55.90
2017-05-01T05:08:26.906Z,56.00
2017-05-01T05:10:53.873Z,55.70
2017-05-01T05:13:20.907Z,55.50
2017-05-01T05:15:47.903Z,55.30
2017-05-01T05:18:14.899Z,54.90
2017-05-01T05:20:41.891Z,55.20
2017-05-01T05:23:08.876Z,55.00
2017-05-01T05:25:35.868Z,54.80
2017-05-01T05:28:03.604Z,55.40
2017-05-01T05:30:30.602Z,54.20
2017-05-01T05:32:57.555Z,54.60
2017-05-01T05:35:24.560Z,53.10
2017-05-01T05:37:52.304Z,53.80
2017-05-01T05:40:19.291Z,53.00
2017-05-01T05:42:46.373Z,52.30
2017-05-01T05:45:13.399Z,52.20
2017-05-01T05:47:40.403Z,52.90
2017-05-01T05:50:07.443Z,52.60
2017-05-01T05:52:34.423Z,53.00
2017-05-01T05:55:02.152Z,52.80
2017-05-01T05:57:29.163Z,53.30
2017-05-01T05:59:56.104Z,53.10
2017-05-01T06:02:23.123Z,53.00
2017-05-01T06:04:50.913Z,52.80
2017-05-01T06:07:17.891Z,53.70
2017-05-01T06:09:44.859Z,52.60
2017-05-01T06:12:12.053Z,51.80
2017-05-01T06:14:39.032Z,52.10
2017-05-01T06:17:05.988Z,52.30
2017-05-01T06:19:32.980Z,52.60
2017-05-01T06:22:00.021Z,52.70
2017-05-01T06:24:27.008Z,51.60
2017-05-01T06:26:53.991Z,51.90
2017-05-01T06:29:20.986Z,52.50
2017-05-01T06:31:47.942Z,52.60
2017-05-01T06:34:14.983Z,53.00
2017-05-01T06:36:41.991Z,53.30
2017-05-01T06:39:09.708Z,52.60
2017-05-01T06:41:36.681Z,52.70
2017-05-01T06:44:03.724Z,53.20
2017-05-01T06:46:30.742Z,53.50
2017-05-01T06:48:57.755Z,53.20
2017-05-01T06:51:24.777Z,52.50
2017-05-01T06:53:52.569Z,51.40
2017-05-01T06:56:19.515Z,52.20
2017-05-01T06:58:46.508Z,52.40
2017-05-01T07:01:13.579Z,52.40
2017-05-01T07:03:41.416Z,53.00
2017-05-01T07:06:08.426Z,52.70
2017-05-01T07:08:35.403Z,53.00
2017-05-01T07:11:02.393Z,52.80
2017-05-01T07:13:31.077Z,53.30
2017-05-01T07:15:58.771Z,52.30
2017-05-01T07:18:25.729Z,52.70
2017-05-01T07:20:52.739Z,51.50
2017-05-01T07:23:20.448Z,52.20
2017-05-01T07:25:47.431Z,52.10
2017-05-01T07:28:14.464Z,52.20
2017-05-01T07:30:41.461Z,51.50
2017-05-01T07:33:08.444Z,51.50
2017-05-01T07:35:35.593Z,51.30
2017-05-01T07:38:02.540Z,50.40
2017-05-01T07:40:29.517Z,50.00
2017-05-01T07:42:56.492Z,51.20
2017-05-01T07:45:23.652Z,52.10
2017-05-01T07:47:50.651Z,52.30
2017-05-01T07:50:17.655Z,52.00
2017-05-01T07:52:44.733Z,51.90
2017-05-01T07:55:12.651Z,52.10
2017-05-01T07:57:39.635Z,51.50
2017-05-01T08:00:06.636Z,50.80
2017-05-01T08:02:34.399Z,50.80
2017-05-01T08:05:02.160Z,50.70
2017-05-01T08:07:29.192Z,51.40
2017-05-01T08:09:56.192Z,51.60
2017-05-01T08:12:23.222Z,51.10
2017-05-01T08:14:50.242Z,50.00
2017-05-01T08:17:17.980Z,50.50
2017-05-01T08:19:44.978Z,50.40
2017-05-01T08:22:12.023Z,49.90
2017-05-01T08:24:38.993Z,51.40
2017-05-01T08:27:06.124Z,50.00
2017-05-01T08:29:33.120Z,50.50
2017-05-01T08:32:00.120Z,49.90
2017-05-01T08:34:27.108Z,49.60
2017-05-01T08:36:54.095Z,49.90
2017-05-01T08:39:21.836Z,47.40
2017-05-01T08:41:48.853Z,48.60
2017-05-01T08:44:15.832Z,49.30
2017-05-01T08:46:42.884Z,48.70
2017-05-01T08:49:09.924Z,49.10
2017-05-01T08:51:36.963Z,49.70
2017-05-01T08:54:03.988Z,49.60
2017-05-01T08:56:30.987Z,49.80
2017-05-01T08:58:58.685Z,50.00
2017-05-01T09:01:25.703Z,50.00
2017-05-01T09:03:52.716Z,50.70
2017-05-01T09:06:19.733Z,52.70
2017-05-01T09:08:46.699Z,54.10
2017-05-01T09:11:13.721Z,56.40
2017-05-01T09:13:40.719Z,57.50
2017-05-01T09:16:08.442Z,58.80
2017-05-01T09:18:35.462Z,59.20
2017-05-01T09:21:02.460Z,60.50
2017-05-01T09:23:29.484Z,62.00
2017-05-01T09:25:56.506Z,62.20
2017-05-01T09:28:23.504Z,62.60
2017-05-01T09:30:50.533Z,62.60
2017-05-01T09:33:17.509Z,62.80
2017-05-01T09:35:45.233Z,62.10
2017-05-01T09:38:12.265Z,62.50
2017-05-01T09:40:39.263Z,63.50
2017-05-01T09:43:06.230Z,64.10
2017-05-01T09:45:34.047Z,64.60
2017-05-01T09:48:01.059Z,65.20
2017-05-01T09:50:28.043Z,67.90
2017-05-01T09:52:55.028Z,67.20
2017-05-01T09:55:22.772Z,66.60
2017-05-01T09:57:49.760Z,67.10
2017-05-01T10:00:16.800Z,67.30
2017-05-01T10:02:43.796Z,67.00
2017-05-01T10:05:10.791Z,66.40
2017-05-01T10:07:37.788Z,66.60
2017-05-01T10:10:04.777Z,67.00
2017-05-01T10:12:32.540Z,67.50
2017-05-01T10:15:00.306Z,66.80
2017-05-01T10:17:28.048Z,66.80
2017-05-01T10:19:55.048Z,67.00
2017-05-01T10:22:22.061Z,66.60
2017-05-01T10:24:49.813Z,66.80
2017-05-01T10:27:17.585Z,67.10
2017-05-01T10:29:45.388Z,67.00
2017-05-01T10:32:12.376Z,67.20
2017-05-01T10:34:39.365Z,67.50
2017-05-01T10:37:07.165Z,67.90
2017-05-01T10:39:34.123Z,67.60
2017-05-01T10:42:01.149Z,67.20
2017-05-01T10:44:28.215Z,67.40
2017-05-01T10:46:55.198Z,67.70
2017-05-01T10:49:22.933Z,68.10
2017-05-01T10:51:49.995Z,67.40
2017-05-01T10:54:17.020Z,67.90
2017-05-01T10:56:44.011Z,68.60
2017-05-01T10:59:11.119Z,69.20
2017-05-01T11:01:38.153Z,69.00
2017-05-01T11:04:05.168Z,69.30
2017-05-01T11:06:32.920Z,69.40
2017-05-01T11:08:59.931Z,69.80
2017-05-01T11:11:26.937Z,69.70
2017-05-01T11:13:54.944Z,69.20
2017-05-01T11:16:21.916Z,70.00
2017-05-01T11:18:49.663Z,69.70
2017-05-01T11:21:16.660Z,69.30
2017-05-01T11:23:43.657Z,68.70
2017-05-01T11:26:10.635Z,68.90
2017-05-01T11:28:38.515Z,69.50
2017-05-01T11:31:05.504Z,68.60
2017-05-01T11:33:32.526Z,68.60
2017-05-01T11:35:59.495Z,68.70
2017-05-01T11:38:26.472Z,68.70
2017-05-01T11:40:54.292Z,69.60
2017-05-01T11:43:21.284Z,69.30
2017-05-01T11:45:49.058Z,68.80
2017-05-01T11:48:16.829Z,69.70
2017-05-01T11:50:43.838Z,71.10
2017-05-01T11:53:10.847Z,69.70
2017-05-01T11:55:37.839Z,70.50
2017-05-01T11:58:04.825Z,72.00
2017-05-01T12:00:31.803Z,72.40
2017-05-01T12:02:58.803Z,72.50
2017-05-01T12:05:26.544Z,73.00
2017-05-01T12:07:54.933Z,73.60
2017-05-01T12:10:23.559Z,74.40
2017-05-01T12:12:50.578Z,74.40
2017-05-01T12:15:18.337Z,74.30
2017-05-01T12:17:46.032Z,75.10
2017-05-01T12:20:13.054Z,74.40
2017-05-01T12:22:40.768Z,73.80
2017-05-01T12:25:07.767Z,75.10
2017-05-01T12:27:35.514Z,75.40
2017-05-01T12:30:03.261Z,74.50
2017-05-01T12:32:30.298Z,75.60
2017-05-01T12:34:57.355Z,76.20
2017-05-01T12:37:25.235Z,77.10
2017-05-01T12:39:52.241Z,77.80
2017-05-01T12:42:19.183Z,77.80
2017-05-01T12:44:46.183Z,78.00
2017-05-01T12:47:13.959Z,77.40
2017-05-01T12:49:41.662Z,78.20
2017-05-01T12:52:08.672Z,79.10
2017-05-01T12:54:35.639Z,79.30
2017-05-01T12:57:02.608Z,78.80
2017-05-01T12:59:29.574Z,80.30
2017-05-01T13:01:56.577Z,81.50
2017-05-01T13:04:23.692Z,81.70
2017-05-01T13:06:51.450Z,81.90
2017-05-01T13:09:19.163Z,80.70
2017-05-01T13:11:46.181Z,79.90
2017-05-01T13:14:13.215Z,81.00
2017-05-01T13:16:40.960Z,80.30
2017-05-01T13:19:07.941Z,80.90
2017-05-01T13:21:49.951Z,81.90
2017-05-01T13:24:16.949Z,82.20
2017-05-01T13:26:44.028Z,82.50
2017-05-01T13:29:11.091Z,82.10
2017-05-01T13:31:38.107Z,82.80
2017-05-01T13:34:05.822Z,83.50
2017-05-01T13:36:32.848Z,83.30
2017-05-01T13:38:59.847Z,84.10
2017-05-01T13:41:26.880Z,85.50
2017-05-01T13:43:53.933Z,84.20
2017-05-01T13:46:20.916Z,84.00
2017-05-01T13:48:48.663Z,83.60
2017-05-01T13:51:17.361Z,82.20
2017-05-01T13:53:45.079Z,82.90
2017-05-01T13:56:12.053Z,81.50
2017-05-01T13:58:39.183Z,82.80
2017-05-01T14:01:06.195Z,81.50
2017-05-01T14:03:33.179Z,80.90
2017-05-01T14:06:00.124Z,82.10
2017-05-01T14:08:27.172Z,81.70
2017-05-01T14:10:54.169Z,81.60
2017-05-01T14:13:21.140Z,81.70
2017-05-01T14:16:03.005Z,81.80
2017-05-01T14:18:30.739Z,82.50
2017-05-01T14:20:57.732Z,82.80
2017-05-01T14:23:24.769Z,82.90
2017-05-01T14:25:51.760Z,83.10
2017-05-01T14:28:18.747Z,83.40
2017-05-01T14:30:46.453Z,82.50
2017-05-01T14:33:13.454Z,82.80
2017-05-01T14:35:41.309Z,83.20
2017-05-01T14:38:09.019Z,83.40
2017-05-01T14:40:36.011Z,83.80
2017-05-01T14:43:02.992Z,83.10
2017-05-01T14:45:29.993Z,84.80
2017-05-01T14:47:56.961Z,84.30
2017-05-01T14:50:24.735Z,84.20
2017-05-01T14:52:52.460Z,84.00
2017-05-01T14:55:20.313Z,83.70
2017-05-01T14:57:47.291Z,82.40
2017-05-01T15:00:14.365Z,83.00
2017-05-01T15:02:42.112Z,82.50
2017-05-01T15:05:09.948Z,82.60
2017-05-01T15:07:36.972Z,84.00
2017-05-01T15:10:03.972Z,83.70
2017-05-01T15:12:30.925Z,82.30
2017-05-01T15:14:58.655Z,82.40
2017-05-01T15:17:25.652Z,83.80
2017-05-01T15:19:52.616Z,80.30
2017-05-01T15:22:19.643Z,80.30
2017-05-01T15:24:46.692Z,81.40
2017-05-01T15:27:13.654Z,79.90
2017-05-01T15:29:40.993Z,81.60
2017-05-01T15:32:08.029Z,82.90
2017-05-01T15:34:35.764Z,83.10
2017-05-01T15:37:02.794Z,82.00
2017-05-01T15:39:29.782Z,82.10
2017-05-01T15:41:56.865Z,82.50
2017-05-01T15:44:23.892Z,82.90
2017-05-01T15:46:51.585Z,81.40
2017-05-01T15:49:18.616Z,80.30
2017-05-01T15:51:45.652Z,79.70
2017-05-01T15:54:12.641Z,80.20
2017-05-01T15:56:40.588Z,82.70
2017-05-01T15:59:07.587Z,80.90
2017-05-01T16:01:34.571Z,81.20
2017-05-01T16:04:01.821Z,80.90
2017-05-01T16:06:28.869Z,81.40
2017-05-01T16:08:55.877Z,81.40
2017-05-01T16:11:22.993Z,81.40
2017-05-01T16:13:49.986Z,80.80
2017-05-01T16:16:17.783Z,81.90
2017-05-01T16:18:44.822Z,80.00
2017-05-01T16:21:11.884Z,79.60
2017-05-01T16:23:38.867Z,79.60
2017-05-01T16:26:05.932Z,80.00
2017-05-01T16:28:33.651Z,80.00
2017-05-01T16:31:00.645Z,81.00
2017-05-01T16:33:28.404Z,80.10
2017-05-01T16:35:55.505Z,80.50
2017-05-01T16:38:22.505Z,80.40
2017-05-01T16:40:50.231Z,80.60
2017-05-01T16:43:17.251Z,81.40
2017-05-01T16:45:44.278Z,81.80
2017-05-01T16:48:11.272Z,82.90
2017-05-01T16:50:38.368Z,82.50
2017-05-01T16:53:05.381Z,81.90
2017-05-01T16:55:32.367Z,82.60
2017-05-01T16:57:59.404Z,82.90
2017-05-01T17:00:27.337Z,83.10
2017-05-01T17:02:54.302Z,83.00
2017-05-01T17:05:21.403Z,82.90
2017-05-01T17:07:48.415Z,82.90
2017-05-01T17:10:17.005Z,83.60
2017-05-01T17:12:43.291Z,83.50
2017-05-01T17:15:10.325Z,83.60
2017-05-01T17:17:37.296Z,84.30
2017-05-01T17:20:04.303Z,83.50
2017-05-01T17:22:31.332Z,84.30
2017-05-01T17:24:58.312Z,83.60
2017-05-01T17:27:25.323Z,83.60
2017-05-01T17:29:52.323Z,83.90
2017-05-01T17:32:19.289Z,84.00
2017-05-01T17:34:46.634Z,83.40
2017-05-01T17:37:13.672Z,83.40
2017-05-01T17:39:40.663Z,83.10
2017-05-01T17:42:07.679Z,83.40
2017-05-01T17:44:34.676Z,82.80
2017-05-01T17:47:01.668Z,83.00
2017-05-01T17:49:28.671Z,82.50
2017-05-01T17:51:55.693Z,82.70
2017-05-01T17:54:22.700Z,82.80
2017-05-01T17:56:50.721Z,82.70
2017-05-01T17:59:17.751Z,82.80
2017-05-01T18:01:45.563Z,82.00
2017-05-01T18:04:12.568Z,82.80
2017-05-01T18:06:40.328Z,83.10
2017-05-01T18:09:08.072Z,83.20
2017-05-01T18:11:35.038Z,83.10
2017-05-01T18:14:02.833Z,82.70
2017-05-01T18:16:29.864Z,83.30
2017-05-01T18:18:57.479Z,83.60
2017-05-01T18:21:24.548Z,82.90
2017-05-01T18:23:51.533Z,82.90
2017-05-01T18:26:18.517Z,83.30
2017-05-01T18:28:45.503Z,83.80
2017-05-01T18:31:12.522Z,83.80
2017-05-01T18:33:39.525Z,83.60
2017-05-01T18:36:06.528Z,83.90
2017-05-01T18:38:34.275Z,83.60
2017-05-01T18:41:01.362Z,83.90
2017-05-01T18:43:29.211Z,83.30
2017-05-01T18:45:56.972Z,83.70
2017-05-01T18:48:24.749Z,83.60
2017-05-01T18:50:52.493Z,83.80
2017-05-01T18:53:19.447Z,83.50
2017-05-01T18:55:47.196Z,83.80
2017-05-01T18:58:14.219Z,83.50
2017-05-01T19:00:41.170Z,83.30
2017-05-01T19:03:08.153Z,83.60
2017-05-01T19:05:36.810Z,83.70
2017-05-01T19:08:03.765Z,83.90
2017-05-01T19:10:30.787Z,84.00
2017-05-01T19:12:57.873Z,83.80
2017-05-01T19:15:25.571Z,83.70
2017-05-01T19:17:52.522Z,84.00
2017-05-01T19:20:19.945Z,84.10
2017-05-01T19:22:47.721Z,84.50
2017-05-01T19:25:14.712Z,84.80
2017-05-01T19:27:41.728Z,85.00
2017-05-01T19:30:08.697Z,84.70
2017-05-01T19:32:35.637Z,85.20
2017-05-01T19:35:02.661Z,85.00
2017-05-01T19:37:30.550Z,85.60
2017-05-01T19:39:57.552Z,85.80
2017-05-01T19:42:25.331Z,85.70
2017-05-01T19:44:53.122Z,85.60
2017-05-01T19:47:20.131Z,86.00
2017-05-01T19:49:47.940Z,85.90
2017-05-01T19:52:14.936Z,85.40
2017-05-01T19:54:42.630Z,85.50
2017-05-01T19:57:09.594Z,85.10
2017-05-01T19:59:36.612Z,85.00
2017-05-01T20:02:03.613Z,85.10
2017-05-01T20:04:30.610Z,85.50
2017-05-01T20:06:57.617Z,85.30
2017-05-01T20:09:24.607Z,85.70
2017-05-01T20:11:51.595Z,84.90
2017-05-01T20:14:18.560Z,85.00
2017-05-01T20:16:45.584Z,85.40
2017-05-01T20:19:12.564Z,85.40
2017-05-01T20:21:40.314Z,85.70
2017-05-01T20:24:07.985Z,85.60
2017-05-01T20:26:35.691Z,86.40
2017-05-01T20:29:02.703Z,86.00
2017-05-01T20:31:30.443Z,85.90
2017-05-01T20:33:57.396Z,86.10
2017-05-01T20:36:24.430Z,86.10
2017-05-01T20:38:51.397Z,85.70
2017-05-01T20:41:19.135Z,86.60
2017-05-01T20:43:46.132Z,85.50
2017-05-01T20:46:13.132Z,85.40
2017-05-01T20:48:40.152Z,85.80
2017-05-01T20:51:07.121Z,85.90
2017-05-01T20:53:34.146Z,85.40
2017-05-01T20:56:01.116Z,85.90
2017-05-01T20:58:28.091Z,85.80
2017-05-01T21:00:55.856Z,85.80
2017-05-01T21:03:23.588Z,85.70
2017-05-01T21:05:51.642Z,86.00
2017-05-01T21:08:18.619Z,86.10
2017-05-01T21:10:45.595Z,85.20
2017-05-01T21:13:13.337Z,85.50
2017-05-01T21:15:40.320Z,85.80
2017-05-01T21:18:07.301Z,85.70
2017-05-01T21:20:34.304Z,85.70
2017-05-01T21:23:01.907Z,85.70
2017-05-01T21:25:28.916Z,86.00
2017-05-01T21:27:55.894Z,86.10
2017-05-01T21:30:22.875Z,86.00
2017-05-01T21:32:49.899Z,86.10
2017-05-01T21:35:17.560Z,86.00
2017-05-01T21:37:44.584Z,85.80
2017-05-01T21:40:11.567Z,85.40
2017-05-01T21:42:38.508Z,85.70
2017-05-01T21:45:05.544Z,86.30
2017-05-01T21:47:32.546Z,86.00
2017-05-01T21:49:59.536Z,85.90
2017-05-01T21:52:26.524Z,86.00
2017-05-01T21:54:54.252Z,86.40
2017-05-01T21:57:21.217Z,86.40
2017-05-01T21:59:48.184Z,87.60
2017-05-01T22:02:15.891Z,86.60
2017-05-01T22:04:42.884Z,86.50
2017-05-01T22:07:10.631Z,87.80
2017-05-01T22:09:37.604Z,86.80
2017-05-01T22:12:05.361Z,86.30
2017-05-01T22:14:33.043Z,87.70
2017-05-01T22:17:00.067Z,88.10
2017-05-01T22:19:27.804Z,87.50
2017-05-01T22:21:54.759Z,87.80
2017-05-01T22:24:21.721Z,88.30
2017-05-01T22:26:49.450Z,88.50
2017-05-01T22:29:16.442Z,88.00
2017-05-01T22:31:44.111Z,88.10
2017-05-01T22:34:11.134Z,88.50
2017-05-01T22:36:38.113Z,88.40
2017-05-01T22:39:05.100Z,88.90
2017-05-01T22:41:32.075Z,88.80
2017-05-01T22:43:59.120Z,88.80
2017-05-01T22:46:26.083Z,88.70
2017-05-01T22:48:53.812Z,88.40
2017-05-01T22:51:20.822Z,88.90
2017-05-01T22:53:47.763Z,88.90
2017-05-01T22:56:14.763Z,88.70
2017-05-01T22:58:41.752Z,88.60
2017-05-01T23:01:08.716Z,88.50
2017-05-01T23:03:35.717Z,88.10
2017-05-01T23:06:03.526Z,88.30
2017-05-01T23:08:30.524Z,88.60
2017-05-01T23:10:58.244Z,88.60
2017-05-01T23:13:25.251Z,87.90
2017-05-01T23:15:52.956Z,88.40
2017-05-01T23:18:20.620Z,88.50
2017-05-01T23:20:47.592Z,86.70
2017-05-01T23:23:14.624Z,86.90
2017-05-01T23:25:41.596Z,88.30
2017-05-01T23:28:08.575Z,87.20
2017-05-01T23:30:35.576Z,87.30
2017-05-01T23:33:02.539Z,87.10
2017-05-01T23:35:30.240Z,88.90
2017-05-01T23:37:57.255Z,87.10
2017-05-01T23:40:25.025Z,86.80
2017-05-01T23:42:52.731Z,86.90
2017-05-01T23:45:19.698Z,86.90
2017-05-01T23:47:46.705Z,86.50
2017-05-01T23:50:13.723Z,87.00
2017-05-01T23:52:41.867Z,86.80
2017-05-01T23:55:08.861Z,86.80
2017-05-01T23:57:35.823Z,86.70
